sensor_id;sensor_type;location;lat;lon;timestamp;temperature;humidity
49242;DHT22;35079;52.704;13.814;2022-10-18T00:01:41;16.20;99.90
49242;DHT22;35079;52.704;13.814;2022-10-18T00:04:07;16.30;99.90
49242;DHT22;35079;52.704;13.814;2022-10-18T00:06:32;16.20;99.90
49242;DHT22;35079;52.704;13.814;2022-10-18T00:08:58;16.10;99.90
49242;DHT22;35079;52.704;13.814;2022-10-18T00:11:24;16.20;99.90
49242;DHT22;35079;52.704;13.814;2022-10-18T00:13:49;16.20;99.90
49242;DHT22;35079;52.704;13.814;2022-10-18T00:16:17;16.10;99.90
49242;DHT22;35079;52.704;13.814;2022-10-18T00:18:44;16.10;99.90
49242;DHT22;35079;52.704;13.814;2022-10-18T00:21:12;16.00;99.90
49242;DHT22;35079;52.704;13.814;2022-10-18T00:23:38;16.10;99.90
49242;DHT22;35079;52.704;13.814;2022-10-18T00:26:18;16.00;99.90
49242;DHT22;35079;52.704;13.814;2022-10-18T00:28:46;16.00;99.90
49242;DHT22;35079;52.704;13.814;2022-10-18T00:31:14;16.00;99.90
49242;DHT22;35079;52.704;13.814;2022-10-18T00:33:41;16.00;99.90
49242;DHT22;35079;52.704;13.814;2022-10-18T00:36:08;16.10;99.90
49242;DHT22;35079;52.704;13.814;2022-10-18T00:38:34;16.10;99.90
49242;DHT22;35079;52.704;13.814;2022-10-18T00:41:00;16.00;99.90
49242;DHT22;35079;52.704;13.814;2022-10-18T00:43:26;16.10;99.90
49242;DHT22;35079;52.704;13.814;2022-10-18T00:45:51;16.10;99.90
49242;DHT22;35079;52.704;13.814;2022-10-18T00:48:18;16.10;99.90
49242;DHT22;35079;52.704;13.814;2022-10-18T00:50:45;16.10;99.90
49242;DHT22;35079;52.704;13.814;2022-10-18T00:53:15;16.10;99.90
49242;DHT22;35079;52.704;13.814;2022-10-18T00:55:41;16.10;99.90
49242;DHT22;35079;52.704;13.814;2022-10-18T00:58:07;16.00;99.90
49242;DHT22;35079;52.704;13.814;2022-10-18T01:00:33;16.10;99.90
49242;DHT22;35079;52.704;13.814;2022-10-18T01:03:03;16.20;99.90
49242;DHT22;35079;52.704;13.814;2022-10-18T01:05:29;16.10;99.90
49242;DHT22;35079;52.704;13.814;2022-10-18T01:10:44;16.10;99.90
49242;DHT22;35079;52.704;13.814;2022-10-18T01:13:31;16.10;99.90
49242;DHT22;35079;52.704;13.814;2022-10-18T01:16:14;16.30;99.90
49242;DHT22;35079;52.704;13.814;2022-10-18T01:19:00;16.30;99.90
49242;DHT22;35079;52.704;13.814;2022-10-18T01:27:19;16.30;99.90
49242;DHT22;35079;52.704;13.814;2022-10-18T01:32:45;16.30;99.90
49242;DHT22;35079;52.704;13.814;2022-10-18T01:35:32;16.40;99.90
49242;DHT22;35079;52.704;13.814;2022-10-18T01:38:02;16.40;99.90
49242;DHT22;35079;52.704;13.814;2022-10-18T01:40:29;16.50;99.90
49242;DHT22;35079;52.704;13.814;2022-10-18T01:42:56;16.50;99.90
49242;DHT22;35079;52.704;13.814;2022-10-18T01:45:23;16.50;99.90
49242;DHT22;35079;52.704;13.814;2022-10-18T01:47:50;16.50;99.90
49242;DHT22;35079;52.704;13.814;2022-10-18T01:50:27;16.60;99.90
49242;DHT22;35079;52.704;13.814;2022-10-18T01:52:53;16.50;99.90
49242;DHT22;35079;52.704;13.814;2022-10-18T01:55:25;16.60;99.90
49242;DHT22;35079;52.704;13.814;2022-10-18T01:58:11;16.70;99.90
49242;DHT22;35079;52.704;13.814;2022-10-18T02:00:43;16.70;99.90
49242;DHT22;35079;52.704;13.814;2022-10-18T02:03:30;16.60;99.90
49242;DHT22;35079;52.704;13.814;2022-10-18T02:06:09;16.70;99.90
49242;DHT22;35079;52.704;13.814;2022-10-18T02:08:46;16.60;99.90
49242;DHT22;35079;52.704;13.814;2022-10-18T02:11:15;16.70;99.90
49242;DHT22;35079;52.704;13.814;2022-10-18T02:13:57;16.70;99.90
49242;DHT22;35079;52.704;13.814;2022-10-18T02:16:48;16.60;99.90
49242;DHT22;35079;52.704;13.814;2022-10-18T02:19:24;16.60;99.90
49242;DHT22;35079;52.704;13.814;2022-10-18T02:21:51;16.60;99.90
49242;DHT22;35079;52.704;13.814;2022-10-18T02:24:18;16.70;99.90
49242;DHT22;35079;52.704;13.814;2022-10-18T02:26:45;16.80;99.90
49242;DHT22;35079;52.704;13.814;2022-10-18T02:29:11;16.70;99.90
49242;DHT22;35079;52.704;13.814;2022-10-18T02:31:45;16.70;99.90
49242;DHT22;35079;52.704;13.814;2022-10-18T02:34:32;16.80;99.90
49242;DHT22;35079;52.704;13.814;2022-10-18T02:37:00;16.90;99.90
49242;DHT22;35079;52.704;13.814;2022-10-18T02:41:56;16.90;99.90
49242;DHT22;35079;52.704;13.814;2022-10-18T02:44:23;16.80;99.90
49242;DHT22;35079;52.704;13.814;2022-10-18T02:46:48;16.80;99.90
49242;DHT22;35079;52.704;13.814;2022-10-18T02:49:14;16.80;99.90
49242;DHT22;35079;52.704;13.814;2022-10-18T02:51:40;16.90;99.90
49242;DHT22;35079;52.704;13.814;2022-10-18T02:54:05;16.80;99.90
49242;DHT22;35079;52.704;13.814;2022-10-18T02:56:33;16.80;99.90
49242;DHT22;35079;52.704;13.814;2022-10-18T02:58:58;16.70;99.90
49242;DHT22;35079;52.704;13.814;2022-10-18T03:01:24;16.80;99.90
49242;DHT22;35079;52.704;13.814;2022-10-18T03:03:50;16.80;99.90
49242;DHT22;35079;52.704;13.814;2022-10-18T03:06:16;16.80;99.90
49242;DHT22;35079;52.704;13.814;2022-10-18T03:08:41;16.70;99.90
49242;DHT22;35079;52.704;13.814;2022-10-18T03:11:07;16.70;99.90
49242;DHT22;35079;52.704;13.814;2022-10-18T03:13:32;16.70;99.90
49242;DHT22;35079;52.704;13.814;2022-10-18T03:15:59;16.60;99.90
49242;DHT22;35079;52.704;13.814;2022-10-18T03:18:24;16.70;99.90
49242;DHT22;35079;52.704;13.814;2022-10-18T03:20:50;16.60;99.90
49242;DHT22;35079;52.704;13.814;2022-10-18T03:23:16;16.50;99.90
49242;DHT22;35079;52.704;13.814;2022-10-18T03:25:41;16.70;99.90
49242;DHT22;35079;52.704;13.814;2022-10-18T03:28:07;16.60;99.90
49242;DHT22;35079;52.704;13.814;2022-10-18T03:30:33;16.60;99.90
49242;DHT22;35079;52.704;13.814;2022-10-18T03:32:59;16.60;99.90
49242;DHT22;35079;52.704;13.814;2022-10-18T03:35:25;16.70;99.90
49242;DHT22;35079;52.704;13.814;2022-10-18T03:37:50;16.60;99.90
49242;DHT22;35079;52.704;13.814;2022-10-18T03:40:16;16.70;99.90
49242;DHT22;35079;52.704;13.814;2022-10-18T03:42:42;16.60;99.90
49242;DHT22;35079;52.704;13.814;2022-10-18T03:45:08;16.60;99.90
49242;DHT22;35079;52.704;13.814;2022-10-18T03:47:33;16.50;99.90
49242;DHT22;35079;52.704;13.814;2022-10-18T03:49:59;16.50;99.90
49242;DHT22;35079;52.704;13.814;2022-10-18T03:52:25;16.70;99.90
49242;DHT22;35079;52.704;13.814;2022-10-18T03:54:50;16.60;99.90
49242;DHT22;35079;52.704;13.814;2022-10-18T03:57:16;16.60;99.90
49242;DHT22;35079;52.704;13.814;2022-10-18T03:59:41;16.60;99.90
49242;DHT22;35079;52.704;13.814;2022-10-18T04:02:07;16.50;99.90
49242;DHT22;35079;52.704;13.814;2022-10-18T04:04:33;16.50;99.90
49242;DHT22;35079;52.704;13.814;2022-10-18T04:06:58;16.40;99.90
49242;DHT22;35079;52.704;13.814;2022-10-18T04:09:24;16.50;99.90
49242;DHT22;35079;52.704;13.814;2022-10-18T04:11:50;16.50;99.90
49242;DHT22;35079;52.704;13.814;2022-10-18T04:14:16;16.40;99.90
49242;DHT22;35079;52.704;13.814;2022-10-18T04:16:42;16.30;99.90
49242;DHT22;35079;52.704;13.814;2022-10-18T04:19:08;16.30;99.90
49242;DHT22;35079;52.704;13.814;2022-10-18T04:21:33;16.40;99.90
49242;DHT22;35079;52.704;13.814;2022-10-18T04:23:59;16.40;99.90
49242;DHT22;35079;52.704;13.814;2022-10-18T04:26:25;16.40;99.90
49242;DHT22;35079;52.704;13.814;2022-10-18T04:28:51;16.30;99.90
49242;DHT22;35079;52.704;13.814;2022-10-18T04:31:16;16.30;99.90
49242;DHT22;35079;52.704;13.814;2022-10-18T04:33:42;16.20;99.90
49242;DHT22;35079;52.704;13.814;2022-10-18T04:36:07;16.30;99.90
49242;DHT22;35079;52.704;13.814;2022-10-18T04:38:33;16.10;99.90
49242;DHT22;35079;52.704;13.814;2022-10-18T04:40:59;16.10;99.90
49242;DHT22;35079;52.704;13.814;2022-10-18T04:43:24;16.10;99.90
49242;DHT22;35079;52.704;13.814;2022-10-18T04:45:50;16.20;99.90
49242;DHT22;35079;52.704;13.814;2022-10-18T04:48:19;16.20;99.90
49242;DHT22;35079;52.704;13.814;2022-10-18T04:50:47;16.10;99.90
49242;DHT22;35079;52.704;13.814;2022-10-18T04:53:15;16.10;99.90
49242;DHT22;35079;52.704;13.814;2022-10-18T04:55:45;16.10;99.90
49242;DHT22;35079;52.704;13.814;2022-10-18T04:58:11;16.00;99.90
49242;DHT22;35079;52.704;13.814;2022-10-18T05:00:37;16.00;99.90
49242;DHT22;35079;52.704;13.814;2022-10-18T05:03:03;15.90;99.90
49242;DHT22;35079;52.704;13.814;2022-10-18T05:05:28;16.00;99.90
49242;DHT22;35079;52.704;13.814;2022-10-18T05:07:54;16.00;99.90
49242;DHT22;35079;52.704;13.814;2022-10-18T05:10:20;15.90;99.90
49242;DHT22;35079;52.704;13.814;2022-10-18T05:12:45;15.90;99.90
49242;DHT22;35079;52.704;13.814;2022-10-18T05:15:11;16.00;99.90
49242;DHT22;35079;52.704;13.814;2022-10-18T05:17:36;15.80;99.90
49242;DHT22;35079;52.704;13.814;2022-10-18T05:20:02;15.90;99.90
49242;DHT22;35079;52.704;13.814;2022-10-18T05:22:28;15.80;99.90
49242;DHT22;35079;52.704;13.814;2022-10-18T05:24:53;15.70;99.90
49242;DHT22;35079;52.704;13.814;2022-10-18T05:27:19;15.80;99.90
49242;DHT22;35079;52.704;13.814;2022-10-18T05:29:45;15.70;99.90
49242;DHT22;35079;52.704;13.814;2022-10-18T05:32:10;15.70;99.90
49242;DHT22;35079;52.704;13.814;2022-10-18T05:34:36;15.80;99.90
49242;DHT22;35079;52.704;13.814;2022-10-18T05:37:01;15.80;99.90
49242;DHT22;35079;52.704;13.814;2022-10-18T05:39:28;15.80;99.90
49242;DHT22;35079;52.704;13.814;2022-10-18T05:41:54;15.70;99.90
49242;DHT22;35079;52.704;13.814;2022-10-18T05:44:19;15.70;99.90
49242;DHT22;35079;52.704;13.814;2022-10-18T05:46:45;15.60;99.90
49242;DHT22;35079;52.704;13.814;2022-10-18T05:49:12;15.70;99.90
49242;DHT22;35079;52.704;13.814;2022-10-18T05:51:38;15.50;99.90
49242;DHT22;35079;52.704;13.814;2022-10-18T05:54:03;15.50;99.90
49242;DHT22;35079;52.704;13.814;2022-10-18T05:56:29;15.40;99.90
49242;DHT22;35079;52.704;13.814;2022-10-18T05:58:55;15.50;99.90
49242;DHT22;35079;52.704;13.814;2022-10-18T06:01:20;15.50;99.90
49242;DHT22;35079;52.704;13.814;2022-10-18T06:03:46;15.50;99.90
49242;DHT22;35079;52.704;13.814;2022-10-18T06:06:13;15.50;99.90
49242;DHT22;35079;52.704;13.814;2022-10-18T06:08:40;15.50;99.90
49242;DHT22;35079;52.704;13.814;2022-10-18T06:11:11;15.60;99.90
49242;DHT22;35079;52.704;13.814;2022-10-18T06:13:45;15.50;99.90
49242;DHT22;35079;52.704;13.814;2022-10-18T06:16:13;15.60;99.90
49242;DHT22;35079;52.704;13.814;2022-10-18T06:18:39;15.50;99.90
49242;DHT22;35079;52.704;13.814;2022-10-18T06:21:05;15.60;99.90
49242;DHT22;35079;52.704;13.814;2022-10-18T06:23:31;15.50;99.90
49242;DHT22;35079;52.704;13.814;2022-10-18T06:26:03;15.60;99.90
49242;DHT22;35079;52.704;13.814;2022-10-18T06:28:29;15.50;99.90
49242;DHT22;35079;52.704;13.814;2022-10-18T06:30:55;15.60;99.90
49242;DHT22;35079;52.704;13.814;2022-10-18T06:33:22;15.60;99.90
49242;DHT22;35079;52.704;13.814;2022-10-18T06:38:20;15.50;99.90
49242;DHT22;35079;52.704;13.814;2022-10-18T06:40:47;15.40;99.90
49242;DHT22;35079;52.704;13.814;2022-10-18T06:43:13;15.50;99.90
49242;DHT22;35079;52.704;13.814;2022-10-18T06:45:38;15.30;99.90
49242;DHT22;35079;52.704;13.814;2022-10-18T06:48:04;15.50;99.90
49242;DHT22;35079;52.704;13.814;2022-10-18T06:50:31;15.40;99.90
49242;DHT22;35079;52.704;13.814;2022-10-18T06:52:56;15.50;99.90
49242;DHT22;35079;52.704;13.814;2022-10-18T06:55:22;15.40;99.90
49242;DHT22;35079;52.704;13.814;2022-10-18T06:57:48;15.40;99.90
49242;DHT22;35079;52.704;13.814;2022-10-18T07:00:14;15.30;99.90
49242;DHT22;35079;52.704;13.814;2022-10-18T07:02:39;15.30;99.90
49242;DHT22;35079;52.704;13.814;2022-10-18T07:05:09;15.30;99.90
49242;DHT22;35079;52.704;13.814;2022-10-18T07:07:35;15.20;99.90
49242;DHT22;35079;52.704;13.814;2022-10-18T07:10:01;15.40;99.90
49242;DHT22;35079;52.704;13.814;2022-10-18T07:12:27;15.20;99.90
49242;DHT22;35079;52.704;13.814;2022-10-18T07:14:53;15.30;99.90
49242;DHT22;35079;52.704;13.814;2022-10-18T07:17:19;15.30;99.90
49242;DHT22;35079;52.704;13.814;2022-10-18T07:19:45;15.40;99.90
49242;DHT22;35079;52.704;13.814;2022-10-18T07:22:10;15.30;99.90
49242;DHT22;35079;52.704;13.814;2022-10-18T07:24:36;15.30;99.90
49242;DHT22;35079;52.704;13.814;2022-10-18T07:27:02;15.40;99.90
49242;DHT22;35079;52.704;13.814;2022-10-18T07:29:27;15.30;99.90
49242;DHT22;35079;52.704;13.814;2022-10-18T07:31:53;15.40;99.90
49242;DHT22;35079;52.704;13.814;2022-10-18T07:34:18;15.40;99.90
49242;DHT22;35079;52.704;13.814;2022-10-18T07:36:44;15.30;99.90
49242;DHT22;35079;52.704;13.814;2022-10-18T07:39:10;15.30;99.90
49242;DHT22;35079;52.704;13.814;2022-10-18T07:41:36;15.50;99.90
49242;DHT22;35079;52.704;13.814;2022-10-18T07:44:02;15.30;99.90
49242;DHT22;35079;52.704;13.814;2022-10-18T07:46:28;15.40;99.90
49242;DHT22;35079;52.704;13.814;2022-10-18T07:48:54;15.50;99.90
49242;DHT22;35079;52.704;13.814;2022-10-18T07:51:20;15.50;99.90
49242;DHT22;35079;52.704;13.814;2022-10-18T07:53:46;15.60;99.90
49242;DHT22;35079;52.704;13.814;2022-10-18T07:56:15;15.60;99.90
49242;DHT22;35079;52.704;13.814;2022-10-18T07:58:45;15.60;99.90
49242;DHT22;35079;52.704;13.814;2022-10-18T08:01:12;15.60;99.90
49242;DHT22;35079;52.704;13.814;2022-10-18T08:03:38;15.60;99.90
49242;DHT22;35079;52.704;13.814;2022-10-18T08:06:05;15.60;99.90
49242;DHT22;35079;52.704;13.814;2022-10-18T08:08:33;15.60;99.90
49242;DHT22;35079;52.704;13.814;2022-10-18T08:11:04;15.80;99.90
49242;DHT22;35079;52.704;13.814;2022-10-18T08:13:30;15.70;99.90
49242;DHT22;35079;52.704;13.814;2022-10-18T08:16:05;15.80;99.90
49242;DHT22;35079;52.704;13.814;2022-10-18T08:18:31;15.70;99.90
49242;DHT22;35079;52.704;13.814;2022-10-18T08:20:59;15.80;99.90
49242;DHT22;35079;52.704;13.814;2022-10-18T08:23:25;16.00;99.90
49242;DHT22;35079;52.704;13.814;2022-10-18T08:25:50;15.80;99.90
49242;DHT22;35079;52.704;13.814;2022-10-18T08:28:16;15.80;99.90
49242;DHT22;35079;52.704;13.814;2022-10-18T08:30:42;15.80;99.90
49242;DHT22;35079;52.704;13.814;2022-10-18T08:33:08;15.80;99.90
49242;DHT22;35079;52.704;13.814;2022-10-18T08:35:34;15.80;99.90
49242;DHT22;35079;52.704;13.814;2022-10-18T08:37:59;15.80;99.90
49242;DHT22;35079;52.704;13.814;2022-10-18T08:40:26;15.70;99.90
49242;DHT22;35079;52.704;13.814;2022-10-18T08:45:36;15.70;99.90
49242;DHT22;35079;52.704;13.814;2022-10-18T08:48:04;15.80;99.90
49242;DHT22;35079;52.704;13.814;2022-10-18T08:50:33;15.70;99.90
49242;DHT22;35079;52.704;13.814;2022-10-18T08:55:51;15.80;99.90
49242;DHT22;35079;52.704;13.814;2022-10-18T08:58:24;15.70;99.90
49242;DHT22;35079;52.704;13.814;2022-10-18T09:03:28;15.70;99.90
49242;DHT22;35079;52.704;13.814;2022-10-18T09:07:00;15.70;99.90
49242;DHT22;35079;52.704;13.814;2022-10-18T09:09:28;15.70;99.90
49242;DHT22;35079;52.704;13.814;2022-10-18T09:13:01;15.60;99.90
49242;DHT22;35079;52.704;13.814;2022-10-18T09:15:05;15.70;99.90
49242;DHT22;35079;52.704;13.814;2022-10-18T09:20:22;15.70;99.90
49242;DHT22;35079;52.704;13.814;2022-10-18T09:25:36;15.60;99.90
49242;DHT22;35079;52.704;13.814;2022-10-18T09:31:34;15.60;99.90
49242;DHT22;35079;52.704;13.814;2022-10-18T09:34:18;15.60;99.90
49242;DHT22;35079;52.704;13.814;2022-10-18T09:36:50;15.80;99.90
49242;DHT22;35079;52.704;13.814;2022-10-18T09:39:21;15.70;99.90
49242;DHT22;35079;52.704;13.814;2022-10-18T09:44:28;15.70;99.90
49242;DHT22;35079;52.704;13.814;2022-10-18T09:50:07;15.60;99.90
49242;DHT22;35079;52.704;13.814;2022-10-18T09:53:16;15.60;99.90
49242;DHT22;35079;52.704;13.814;2022-10-18T09:56:05;15.70;99.90
49242;DHT22;35079;52.704;13.814;2022-10-18T09:58:46;15.70;99.90
49242;DHT22;35079;52.704;13.814;2022-10-18T10:01:27;15.60;99.90
49242;DHT22;35079;52.704;13.814;2022-10-18T10:03:53;15.60;99.90
49242;DHT22;35079;52.704;13.814;2022-10-18T10:08:58;15.60;99.90
49242;DHT22;35079;52.704;13.814;2022-10-18T10:11:37;15.60;99.90
49242;DHT22;35079;52.704;13.814;2022-10-18T10:14:17;15.60;99.90
49242;DHT22;35079;52.704;13.814;2022-10-18T10:16:57;15.70;99.90
49242;DHT22;35079;52.704;13.814;2022-10-18T10:19:36;15.60;99.90
49242;DHT22;35079;52.704;13.814;2022-10-18T10:22:12;15.70;99.90
49242;DHT22;35079;52.704;13.814;2022-10-18T10:24:49;15.80;99.90
49242;DHT22;35079;52.704;13.814;2022-10-18T10:27:22;15.70;99.90
49242;DHT22;35079;52.704;13.814;2022-10-18T10:29:51;15.70;99.90
49242;DHT22;35079;52.704;13.814;2022-10-18T10:32:21;15.70;99.90
49242;DHT22;35079;52.704;13.814;2022-10-18T10:34:48;15.80;99.90
49242;DHT22;35079;52.704;13.814;2022-10-18T10:40:18;15.70;99.90
49242;DHT22;35079;52.704;13.814;2022-10-18T10:42:55;15.70;99.90
49242;DHT22;35079;52.704;13.814;2022-10-18T10:45:24;15.70;99.90
49242;DHT22;35079;52.704;13.814;2022-10-18T10:47:52;15.70;99.90
49242;DHT22;35079;52.704;13.814;2022-10-18T10:50:26;15.70;99.90
49242;DHT22;35079;52.704;13.814;2022-10-18T10:52:52;15.80;99.90
49242;DHT22;35079;52.704;13.814;2022-10-18T10:55:24;15.60;99.90
49242;DHT22;35079;52.704;13.814;2022-10-18T10:57:53;15.70;99.90
49242;DHT22;35079;52.704;13.814;2022-10-18T11:00:42;15.70;99.90
49242;DHT22;35079;52.704;13.814;2022-10-18T11:03:16;15.60;99.90
49242;DHT22;35079;52.704;13.814;2022-10-18T11:05:54;15.60;99.90
49242;DHT22;35079;52.704;13.814;2022-10-18T11:08:31;15.50;99.90
49242;DHT22;35079;52.704;13.814;2022-10-18T11:11:18;15.50;99.90
49242;DHT22;35079;52.704;13.814;2022-10-18T11:13:47;15.60;99.90
49242;DHT22;35079;52.704;13.814;2022-10-18T11:16:24;15.50;99.90
49242;DHT22;35079;52.704;13.814;2022-10-18T11:18:51;15.50;99.90
49242;DHT22;35079;52.704;13.814;2022-10-18T11:21:22;15.60;99.90
49242;DHT22;35079;52.704;13.814;2022-10-18T11:23:49;15.60;99.90
49242;DHT22;35079;52.704;13.814;2022-10-18T11:26:38;15.70;99.90
49242;DHT22;35079;52.704;13.814;2022-10-18T11:29:21;15.70;99.90
49242;DHT22;35079;52.704;13.814;2022-10-18T11:34:46;15.80;99.90
49242;DHT22;35079;52.704;13.814;2022-10-18T11:59:37;15.80;99.90
49242;DHT22;35079;52.704;13.814;2022-10-18T12:04:51;15.80;99.90
49242;DHT22;35079;52.704;13.814;2022-10-18T12:07:21;15.90;99.90
49242;DHT22;35079;52.704;13.814;2022-10-18T12:09:50;16.00;99.90
49242;DHT22;35079;52.704;13.814;2022-10-18T12:12:31;16.00;99.90
49242;DHT22;35079;52.704;13.814;2022-10-18T12:15:02;16.00;99.90
49242;DHT22;35079;52.704;13.814;2022-10-18T12:19:57;16.10;99.90
49242;DHT22;35079;52.704;13.814;2022-10-18T12:22:34;16.10;99.90
49242;DHT22;35079;52.704;13.814;2022-10-18T12:25:01;16.10;99.90
49242;DHT22;35079;52.704;13.814;2022-10-18T12:27:48;16.20;99.90
49242;DHT22;35079;52.704;13.814;2022-10-18T12:30:35;16.20;99.90
49242;DHT22;35079;52.704;13.814;2022-10-18T12:33:12;16.20;99.90
49242;DHT22;35079;52.704;13.814;2022-10-18T12:38:53;16.30;99.90
49242;DHT22;35079;52.704;13.814;2022-10-18T12:41:29;16.40;99.90
49242;DHT22;35079;52.704;13.814;2022-10-18T12:44:19;16.40;99.90
49242;DHT22;35079;52.704;13.814;2022-10-18T12:46:54;16.40;99.90
49242;DHT22;35079;52.704;13.814;2022-10-18T12:49:28;16.30;99.90
49242;DHT22;35079;52.704;13.814;2022-10-18T12:51:57;16.40;99.90
49242;DHT22;35079;52.704;13.814;2022-10-18T12:54:38;16.30;99.90
49242;DHT22;35079;52.704;13.814;2022-10-18T12:57:22;16.40;99.90
49242;DHT22;35079;52.704;13.814;2022-10-18T12:59:47;16.30;99.90
49242;DHT22;35079;52.704;13.814;2022-10-18T13:02:22;16.40;99.90
49242;DHT22;35079;52.704;13.814;2022-10-18T13:04:48;16.30;99.90
49242;DHT22;35079;52.704;13.814;2022-10-18T13:15:42;16.20;99.90
49242;DHT22;35079;52.704;13.814;2022-10-18T13:26:25;16.20;99.90
49242;DHT22;35079;52.704;13.814;2022-10-18T13:29:45;16.30;99.90
49242;DHT22;35079;52.704;13.814;2022-10-18T13:39:00;16.40;99.90
49242;DHT22;35079;52.704;13.814;2022-10-18T13:41:27;16.40;99.90
49242;DHT22;35079;52.704;13.814;2022-10-18T13:58:05;16.30;99.90
49242;DHT22;35079;52.704;13.814;2022-10-18T14:04:01;16.40;99.90
49242;DHT22;35079;52.704;13.814;2022-10-18T14:06:39;16.40;99.90
49242;DHT22;35079;52.704;13.814;2022-10-18T14:11:41;16.50;99.90
49242;DHT22;35079;52.704;13.814;2022-10-18T14:17:06;16.60;99.90
49242;DHT22;35079;52.704;13.814;2022-10-18T14:19:54;16.70;99.90
49242;DHT22;35079;52.704;13.814;2022-10-18T14:22:35;16.60;99.90
49242;DHT22;35079;52.704;13.814;2022-10-18T14:25:15;16.50;99.90
49242;DHT22;35079;52.704;13.814;2022-10-18T14:27:42;16.40;99.90
49242;DHT22;35079;52.704;13.814;2022-10-18T14:30:19;16.30;99.90
49242;DHT22;35079;52.704;13.814;2022-10-18T14:32:50;16.30;99.90
49242;DHT22;35079;52.704;13.814;2022-10-18T14:35:29;16.30;99.90
49242;DHT22;35079;52.704;13.814;2022-10-18T14:37:55;16.30;99.90
49242;DHT22;35079;52.704;13.814;2022-10-18T14:40:34;16.20;99.90
49242;DHT22;35079;52.704;13.814;2022-10-18T14:43:18;16.30;99.90
49242;DHT22;35079;52.704;13.814;2022-10-18T14:45:44;16.30;99.90
49242;DHT22;35079;52.704;13.814;2022-10-18T14:48:20;16.10;99.90
49242;DHT22;35079;52.704;13.814;2022-10-18T14:50:49;16.00;99.90
49242;DHT22;35079;52.704;13.814;2022-10-18T14:53:23;15.90;99.90
49242;DHT22;35079;52.704;13.814;2022-10-18T14:55:58;15.80;99.90
49242;DHT22;35079;52.704;13.814;2022-10-18T14:58:26;15.70;99.90
49242;DHT22;35079;52.704;13.814;2022-10-18T15:00:51;15.60;99.90
49242;DHT22;35079;52.704;13.814;2022-10-18T15:03:19;15.60;99.90
49242;DHT22;35079;52.704;13.814;2022-10-18T15:06:14;15.50;99.90
49242;DHT22;35079;52.704;13.814;2022-10-18T15:08:41;15.30;99.90
49242;DHT22;35079;52.704;13.814;2022-10-18T15:11:07;15.30;99.90
49242;DHT22;35079;52.704;13.814;2022-10-18T15:13:37;15.20;99.90
49242;DHT22;35079;52.704;13.814;2022-10-18T15:16:06;15.20;99.90
49242;DHT22;35079;52.704;13.814;2022-10-18T15:18:36;15.10;99.90
49242;DHT22;35079;52.704;13.814;2022-10-18T15:23:40;15.00;99.90
49242;DHT22;35079;52.704;13.814;2022-10-18T15:26:08;15.00;99.90
49242;DHT22;35079;52.704;13.814;2022-10-18T15:28:40;15.00;99.90
49242;DHT22;35079;52.704;13.814;2022-10-18T15:31:26;14.90;99.90
49242;DHT22;35079;52.704;13.814;2022-10-18T15:33:53;14.90;99.90
49242;DHT22;35079;52.704;13.814;2022-10-18T15:36:26;14.70;99.90
49242;DHT22;35079;52.704;13.814;2022-10-18T15:41:50;14.50;99.90
49242;DHT22;35079;52.704;13.814;2022-10-18T15:46:49;14.30;99.90
49242;DHT22;35079;52.704;13.814;2022-10-18T15:52:21;14.20;99.90
49242;DHT22;35079;52.704;13.814;2022-10-18T15:54:40;14.10;99.90
49242;DHT22;35079;52.704;13.814;2022-10-18T15:57:08;14.10;99.90
49242;DHT22;35079;52.704;13.814;2022-10-18T15:59:34;14.00;99.90
49242;DHT22;35079;52.704;13.814;2022-10-18T16:02:00;14.00;99.90
49242;DHT22;35079;52.704;13.814;2022-10-18T16:04:29;13.90;99.90
49242;DHT22;35079;52.704;13.814;2022-10-18T16:06:56;13.80;99.90
49242;DHT22;35079;52.704;13.814;2022-10-18T16:09:24;13.70;99.90
49242;DHT22;35079;52.704;13.814;2022-10-18T16:11:50;13.70;99.90
49242;DHT22;35079;52.704;13.814;2022-10-18T16:14:17;13.60;99.90
49242;DHT22;35079;52.704;13.814;2022-10-18T16:16:43;13.70;99.90
49242;DHT22;35079;52.704;13.814;2022-10-18T16:19:13;13.70;99.90
49242;DHT22;35079;52.704;13.814;2022-10-18T16:21:40;13.60;99.90
49242;DHT22;35079;52.704;13.814;2022-10-18T16:24:06;13.60;99.90
49242;DHT22;35079;52.704;13.814;2022-10-18T16:26:31;13.40;99.90
49242;DHT22;35079;52.704;13.814;2022-10-18T16:28:58;13.50;99.90
49242;DHT22;35079;52.704;13.814;2022-10-18T16:31:26;13.40;99.90
49242;DHT22;35079;52.704;13.814;2022-10-18T16:33:53;13.40;99.90
49242;DHT22;35079;52.704;13.814;2022-10-18T16:36:31;13.40;99.90
49242;DHT22;35079;52.704;13.814;2022-10-18T16:39:01;13.30;99.90
49242;DHT22;35079;52.704;13.814;2022-10-18T16:41:27;13.20;99.90
49242;DHT22;35079;52.704;13.814;2022-10-18T16:43:53;13.30;99.90
49242;DHT22;35079;52.704;13.814;2022-10-18T16:46:27;13.20;99.90
49242;DHT22;35079;52.704;13.814;2022-10-18T16:48:53;13.30;99.90
49242;DHT22;35079;52.704;13.814;2022-10-18T16:51:19;13.10;99.90
49242;DHT22;35079;52.704;13.814;2022-10-18T16:53:45;13.10;99.90
49242;DHT22;35079;52.704;13.814;2022-10-18T16:56:17;13.00;99.90
49242;DHT22;35079;52.704;13.814;2022-10-18T16:58:45;13.00;99.90
49242;DHT22;35079;52.704;13.814;2022-10-18T17:01:16;12.90;99.90
49242;DHT22;35079;52.704;13.814;2022-10-18T17:03:42;12.90;99.90
49242;DHT22;35079;52.704;13.814;2022-10-18T17:06:25;12.90;99.90
49242;DHT22;35079;52.704;13.814;2022-10-18T17:08:51;12.80;99.90
49242;DHT22;35079;52.704;13.814;2022-10-18T17:11:19;12.80;99.90
49242;DHT22;35079;52.704;13.814;2022-10-18T17:13:45;12.80;99.90
49242;DHT22;35079;52.704;13.814;2022-10-18T17:16:32;12.60;99.90
49242;DHT22;35079;52.704;13.814;2022-10-18T17:19:00;12.60;99.90
49242;DHT22;35079;52.704;13.814;2022-10-18T17:21:28;12.60;99.90
49242;DHT22;35079;52.704;13.814;2022-10-18T17:23:54;12.50;99.90
49242;DHT22;35079;52.704;13.814;2022-10-18T17:26:21;12.60;99.90
49242;DHT22;35079;52.704;13.814;2022-10-18T17:28:52;12.50;99.90
49242;DHT22;35079;52.704;13.814;2022-10-18T17:31:19;12.40;99.90
49242;DHT22;35079;52.704;13.814;2022-10-18T17:33:44;12.30;99.90
49242;DHT22;35079;52.704;13.814;2022-10-18T17:36:10;12.30;99.90
49242;DHT22;35079;52.704;13.814;2022-10-18T17:38:36;12.40;99.90
49242;DHT22;35079;52.704;13.814;2022-10-18T17:41:09;12.30;99.90
49242;DHT22;35079;52.704;13.814;2022-10-18T17:43:38;12.20;99.90
49242;DHT22;35079;52.704;13.814;2022-10-18T17:46:05;12.20;99.90
49242;DHT22;35079;52.704;13.814;2022-10-18T17:48:31;12.10;99.90